Time;durP1;ratioP1;P1;durP2;ratioP2;P2;SDS_P1;SDS_P2;PMS_P1;PMS_P2;Temp;Humidity;BMP_temperature;BMP_pressure;BME280_temperature;BME280_humidity;BME280_pressure;Samples;Min_cycle;Max_cycle;Signal;HPM_P1;HPM_P2
2024/02/12 00:01:37;;;;;;;6.00;3.20;;;;;;;20.39;38.74;99686.42;102724;1295;73551;-80
2024/02/12 00:04:02;;;;;;;7.00;3.30;;;;;;;20.38;38.75;99685.58;102721;1291;61733;-81
2024/02/12 00:06:29;;;;;;;5.80;3.30;;;;;;;20.38;38.62;99686.27;102765;1292;61387;-81
2024/02/12 00:08:55;;;;;;;5.80;3.10;;;;;;;20.39;38.58;99681.96;102669;1291;61415;-81
2024/02/12 00:11:21;;;;;;;5.70;3.30;;;;;;;20.39;38.53;99683.06;102701;1296;62521;-80
2024/02/12 00:13:47;;;;;;;6.80;2.90;;;;;;;20.38;38.59;99680.75;102756;1290;62370;-81
2024/02/12 00:16:13;;;;;;;6.20;3.00;;;;;;;20.39;38.74;99684.84;102750;1291;61393;-80
2024/02/12 00:18:38;;;;;;;6.60;3.30;;;;;;;20.38;38.65;99683.80;102697;1291;62653;-81
2024/02/12 00:21:05;;;;;;;6.00;3.20;;;;;;;20.38;38.55;99682.93;102718;1291;62440;-80
2024/02/12 00:23:34;;;;;;;7.60;3.40;;;;;;;20.38;38.53;99680.07;102824;1290;72564;-80
2024/02/12 00:26:00;;;;;;;5.30;2.90;;;;;;;20.38;38.54;99679.51;102727;1291;75346;-80
2024/02/12 00:28:28;;;;;;;5.50;3.10;;;;;;;20.38;38.49;99682.41;102697;1296;62481;-81
2024/02/12 00:30:56;;;;;;;5.40;3.10;;;;;;;20.38;38.52;99679.35;102800;1294;61328;-81
2024/02/12 00:33:22;;;;;;;5.00;2.90;;;;;;;20.38;38.58;99676.67;102744;1291;72581;-80
2024/02/12 00:35:48;;;;;;;6.20;3.00;;;;;;;20.38;38.53;99671.86;102640;1291;62085;-80
2024/02/12 00:38:14;;;;;;;4.10;2.70;;;;;;;20.38;38.55;99673.63;102633;1291;61416;-80
2024/02/12 00:40:43;;;;;;;5.20;3.10;;;;;;;20.37;38.44;99666.73;102842;1289;62379;-81
2024/02/12 00:43:10;;;;;;;6.40;3.10;;;;;;;20.37;38.47;99665.48;102710;1291;73840;-80
2024/02/12 00:45:35;;;;;;;7.20;3.20;;;;;;;20.37;38.48;99662.80;102738;1289;61398;-81
2024/02/12 00:48:03;;;;;;;5.40;3.00;;;;;;;20.37;38.51;99662.80;102834;1292;62593;-80
2024/02/12 00:50:30;;;;;;;8.30;3.10;;;;;;;20.37;38.54;99660.11;102679;1292;61383;-80
2024/02/12 00:52:58;;;;;;;5.50;2.90;;;;;;;20.37;38.51;99659.42;102671;1291;62821;-81
2024/02/12 00:55:24;;;;;;;6.30;2.70;;;;;;;20.37;38.59;99655.51;102711;1291;74499;-79
2024/02/12 00:57:49;;;;;;;6.20;2.90;;;;;;;20.36;38.50;99651.95;102806;1291;62487;-79
2024/02/12 01:00:15;;;;;;;5.50;3.00;;;;;;;20.37;38.51;99654.10;102603;1294;61566;-80
2024/02/12 01:02:42;;;;;;;5.00;2.90;;;;;;;20.37;38.57;99649.09;102617;1296;62378;-80
2024/02/12 01:05:08;;;;;;;5.40;2.70;;;;;;;20.37;38.45;99642.29;102294;1294;61265;-80
2024/02/12 01:07:38;;;;;;;5.80;3.00;;;;;;;20.36;38.55;99642.14;102539;1295;61991;-81
2024/02/12 01:10:05;;;;;;;5.10;2.80;;;;;;;20.36;38.55;99636.77;102751;1294;61459;-82
2024/02/12 01:12:31;;;;;;;6.20;3.20;;;;;;;20.36;38.41;99638.78;102628;1297;62390;-80
2024/02/12 01:14:59;;;;;;;4.90;2.90;;;;;;;20.36;38.45;99635.77;102272;1292;62583;-79
2024/02/12 01:17:25;;;;;;;4.30;2.70;;;;;;;20.36;38.51;99632.88;102594;1294;61327;-79
2024/02/12 01:19:51;;;;;;;4.20;2.60;;;;;;;20.36;38.55;99634.50;102532;1295;62615;-80
2024/02/12 01:22:19;;;;;;;5.50;2.80;;;;;;;20.36;38.46;99631.64;102589;1294;61580;-80
2024/02/12 01:24:49;;;;;;;7.00;2.80;;;;;;;20.36;38.44;99632.20;102318;1299;74353;-80
2024/02/12 01:27:15;;;;;;;4.60;2.80;;;;;;;20.35;38.52;99635.08;102607;1293;61469;-80
2024/02/12 01:29:41;;;;;;;5.20;2.90;;;;;;;20.35;38.47;99634.03;102648;1297;61465;-79
2024/02/12 01:32:09;;;;;;;5.70;2.90;;;;;;;20.35;38.56;99632.08;102697;1291;62365;-79
2024/02/12 01:34:40;;;;;;;5.00;2.90;;;;;;;20.36;38.61;99624.54;102681;1291;74342;-81
2024/02/12 01:37:06;;;;;;;5.40;2.90;;;;;;;20.35;38.64;99624.42;102979;1293;61385;-81
2024/02/12 01:39:32;;;;;;;5.60;2.90;;;;;;;20.35;38.65;99624.56;102681;1291;61389;-81
2024/02/12 01:41:58;;;;;;;7.60;3.20;;;;;;;20.35;38.56;99621.37;102918;1293;61968;-81
2024/02/12 01:44:25;;;;;;;5.70;2.90;;;;;;;20.35;38.63;99622.27;102669;1292;61844;-79
2024/02/12 01:46:50;;;;;;;6.20;2.70;;;;;;;20.35;38.58;99623.20;103011;1293;62593;-80
2024/02/12 01:49:17;;;;;;;5.10;2.80;;;;;;;20.35;38.38;99621.23;103008;1292;61405;-81
2024/02/12 01:51:44;;;;;;;5.30;2.80;;;;;;;20.35;38.70;99619.42;102645;1292;61412;-80
2024/02/12 01:54:12;;;;;;;4.50;2.60;;;;;;;20.34;38.58;99619.46;102987;1290;62647;-80
2024/02/12 01:56:37;;;;;;;4.40;2.90;;;;;;;20.34;38.59;99621.41;102787;1289;61522;-80
2024/02/12 01:59:03;;;;;;;5.60;3.10;;;;;;;20.34;38.72;99622.50;102637;1291;61396;-81
2024/02/12 02:01:29;;;;;;;5.20;2.90;;;;;;;20.34;38.65;99625.91;102670;1297;62987;-80
2024/02/12 02:03:55;;;;;;;5.60;3.20;;;;;;;20.34;38.58;99623.79;102806;1291;62347;-81
2024/02/12 02:06:21;;;;;;;6.40;3.20;;;;;;;20.34;38.64;99618.96;102675;1291;61342;-81
2024/02/12 02:08:47;;;;;;;5.50;2.80;;;;;;;20.34;38.58;99622.35;102948;1292;61416;-79
2024/02/12 02:11:15;;;;;;;6.40;3.00;;;;;;;20.34;38.70;99618.98;102666;1292;61420;-80
2024/02/12 02:13:44;;;;;;;5.70;2.70;;;;;;;20.34;38.71;99617.77;102754;1291;73221;-80
2024/02/12 02:16:10;;;;;;;;;;;;;;;20.33;38.67;99612.75;102719;1296;75381;-80
2024/02/12 02:18:44;;;;;;;5.20;2.80;;;;;;;20.31;38.51;99610.51;102966;1291;61327;-80
2024/02/12 02:21:12;;;;;;;5.40;2.50;;;;;;;20.32;38.59;99612.02;102953;1292;61349;-79
2024/02/12 02:23:41;;;;;;;5.10;2.70;;;;;;;20.32;38.70;99603.99;102660;1291;71899;-80
2024/02/12 02:26:07;;;;;;;4.90;2.80;;;;;;;20.31;38.58;99605.96;102922;1294;74489;-81
2024/02/12 02:28:32;;;;;;;5.50;2.80;;;;;;;20.31;38.69;99613.48;102957;1293;61436;-80
2024/02/12 02:30:58;;;;;;;5.40;2.70;;;;;;;20.31;38.62;99597.20;102668;1291;61416;-80
2024/02/12 02:33:24;;;;;;;6.00;3.10;;;;;;;20.31;38.63;99592.95;102934;1294;61629;-79
2024/02/12 02:35:49;;;;;;;5.00;3.00;;;;;;;20.32;38.65;99591.47;102667;1295;61827;-81
2024/02/12 02:38:15;;;;;;;4.80;2.80;;;;;;;20.31;38.68;99585.26;102967;1294;61280;-81
2024/02/12 02:40:44;;;;;;;3.90;2.40;;;;;;;20.31;38.71;99579.37;102870;1294;61229;-80
2024/02/12 02:43:10;;;;;;;6.00;2.90;;;;;;;20.31;38.63;99579.23;102679;1291;62339;-82
2024/02/12 02:45:36;;;;;;;6.70;2.70;;;;;;;20.31;38.73;99581.70;102857;1294;61404;-80
2024/02/12 02:48:04;;;;;;;6.00;2.90;;;;;;;20.31;38.58;99577.26;102657;1292;62653;-80
2024/02/12 02:50:34;;;;;;;7.10;3.00;;;;;;;20.31;38.81;99572.63;102719;1294;61394;-81
2024/02/12 02:53:01;;;;;;;6.30;3.00;;;;;;;20.31;38.85;99569.77;102722;1292;62387;-80
2024/02/12 02:55:28;;;;;;;4.90;2.60;;;;;;;20.30;38.77;99564.27;102612;1295;72344;-80
2024/02/12 02:57:55;;;;;;;6.20;2.70;;;;;;;20.31;38.71;99566.02;102597;1291;74340;-80
2024/02/12 03:00:20;;;;;;;5.70;2.80;;;;;;;20.30;38.78;99564.44;102812;1291;61436;-79
2024/02/12 03:02:46;;;;;;;5.10;2.60;;;;;;;20.30;38.57;99572.29;102672;1290;61451;-80
2024/02/12 03:05:12;;;;;;;4.40;2.50;;;;;;;20.30;38.64;99572.27;102682;1295;61487;-80
2024/02/12 03:07:43;;;;;;;5.10;2.70;;;;;;;20.30;38.83;99566.25;102718;1295;61402;-81
2024/02/12 03:10:12;;;;;;;5.50;3.30;;;;;;;20.30;38.71;99564.26;102784;1292;61346;-81
2024/02/12 03:12:38;;;;;;;6.20;2.70;;;;;;;20.30;38.72;99565.20;102835;1294;61744;-80
2024/02/12 03:15:09;;;;;;;4.90;2.70;;;;;;;20.30;38.72;99568.78;102676;1291;61472;-79
2024/02/12 03:17:35;;;;;;;6.10;2.80;;;;;;;20.29;38.71;99563.63;102836;1293;75011;-79
2024/02/12 03:20:00;;;;;;;5.40;2.60;;;;;;;20.30;38.74;99562.88;102632;1291;61461;-79
2024/02/12 03:22:26;;;;;;;4.40;2.60;;;;;;;20.29;38.63;99558.99;102860;1291;61410;-81
2024/02/12 03:24:56;;;;;;;5.40;2.70;;;;;;;20.29;38.76;99553.30;102687;1292;61415;-80
2024/02/12 03:27:23;;;;;;;5.00;3.10;;;;;;;20.29;38.70;99553.46;102729;1294;75480;-79
2024/02/12 03:29:49;;;;;;;3.90;2.40;;;;;;;20.29;38.77;99553.66;102644;1295;61616;-81
2024/02/12 03:32:15;;;;;;;6.50;2.70;;;;;;;20.29;38.77;99554.05;102867;1291;61401;-79
2024/02/12 03:34:41;;;;;;;6.00;2.50;;;;;;;20.28;38.84;99556.56;102896;1292;62393;-79
2024/02/12 03:37:06;;;;;;;7.20;2.80;;;;;;;20.28;38.68;99561.41;102832;1291;61394;-81
2024/02/12 03:39:32;;;;;;;5.60;2.70;;;;;;;20.28;38.71;99570.70;102642;1300;62078;-80
2024/02/12 03:41:58;;;;;;;6.90;3.00;;;;;;;20.27;38.74;99568.61;102818;1292;62361;-81
2024/02/12 03:44:24;;;;;;;6.20;2.70;;;;;;;20.28;38.67;99568.20;102842;1294;61437;-79
2024/02/12 03:46:52;;;;;;;4.60;2.60;;;;;;;20.28;38.66;99563.73;102664;1291;61769;-81
2024/02/12 04:00:16;;;;;;;5.40;2.90;;;;;;;20.26;38.78;99553.88;102563;1291;74680;-80
2024/02/12 04:02:45;;;;;;;6.00;3.10;;;;;;;20.26;38.82;99551.75;102709;1295;61583;-80
2024/02/12 04:05:11;;;;;;;5.30;2.60;;;;;;;20.26;38.74;99552.49;102637;1295;61781;-80
2024/02/12 04:07:41;;;;;;;4.60;2.60;;;;;;;20.25;38.72;99550.35;102655;1296;61461;-79
2024/02/12 04:10:10;;;;;;;5.70;2.60;;;;;;;20.25;38.72;99545.02;102573;1296;73179;-79
2024/02/12 04:12:38;;;;;;;5.60;2.80;;;;;;;20.25;38.68;99542.48;102482;1294;61407;-80
2024/02/12 04:15:08;;;;;;;4.70;2.40;;;;;;;20.25;38.69;99536.07;102674;1289;61479;-80
2024/02/12 04:17:34;;;;;;;4.90;2.60;;;;;;;20.25;38.70;99537.88;102836;1290;72518;-80
2024/02/12 04:20:01;;;;;;;5.60;2.90;;;;;;;20.25;38.63;99538.77;102779;1294;61452;-80
2024/02/12 04:22:27;;;;;;;5.50;2.60;;;;;;;20.25;38.79;99538.60;102643;1295;61415;-81
2024/02/12 04:24:54;;;;;;;4.60;2.60;;;;;;;20.25;38.71;99540.75;102499;1298;61524;-79
2024/02/12 04:27:21;;;;;;;7.00;2.80;;;;;;;20.25;38.82;99538.44;102537;1295;72500;-82
2024/02/12 04:29:47;;;;;;;5.70;2.80;;;;;;;20.25;38.72;99537.91;102572;1294;75645;-83
2024/02/12 04:32:13;;;;;;;4.80;2.70;;;;;;;20.25;38.67;99542.18;102637;1294;61892;-81
2024/02/12 04:34:41;;;;;;;6.60;2.80;;;;;;;20.24;38.48;99540.83;102560;1294;62300;-81
2024/02/12 04:37:08;;;;;;;4.40;2.80;;;;;;;20.24;38.57;99541.39;102638;1295;72150;-82
2024/02/12 04:39:35;;;;;;;5.40;3.00;;;;;;;20.23;38.45;99544.17;102356;1293;74452;-80
2024/02/12 04:42:02;;;;;;;6.00;2.60;;;;;;;20.22;38.46;99550.67;102359;1294;61402;-81
2024/02/12 04:44:28;;;;;;;6.80;2.70;;;;;;;20.22;38.55;99552.28;102565;1300;61410;-80
2024/02/12 04:46:55;;;;;;;6.60;3.30;;;;;;;20.22;38.49;99557.09;102646;1293;62264;-81
2024/02/12 04:49:21;;;;;;;5.60;2.70;;;;;;;20.21;38.33;99556.80;102601;1298;61473;-81
2024/02/12 04:51:48;;;;;;;5.80;2.70;;;;;;;20.22;38.25;99555.89;102536;1296;61596;-81
2024/02/12 04:54:14;;;;;;;4.50;2.80;;;;;;;20.21;38.13;99553.05;102660;1291;61853;-82
2024/02/12 04:56:43;;;;;;;6.80;3.10;;;;;;;20.20;38.20;99555.12;102808;1295;61398;-81
2024/02/12 04:59:18;;;;;;;8.90;3.50;;;;;;;20.20;38.26;99558.34;102632;1291;75544;-82
2024/02/12 05:01:45;;;;;;;9.10;3.00;;;;;;;20.19;38.13;99563.21;102925;1290;61423;-82
2024/02/12 05:04:11;;;;;;;6.10;3.20;;;;;;;20.19;38.27;99561.43;103070;1293;61734;-81
2024/02/12 05:06:36;;;;;;;9.40;3.40;;;;;;;20.18;38.23;99563.14;103310;1295;61314;-81
2024/02/12 05:09:09;;;;;;;7.70;3.50;;;;;;;20.18;38.48;99569.77;102983;1297;61498;-80
2024/02/12 05:11:34;;;;;;;14.80;4.10;;;;;;;20.17;38.53;99566.63;102864;1292;61309;-80
2024/02/12 05:14:00;;;;;;;12.40;3.70;;;;;;;20.17;38.72;99564.52;103158;1291;61635;-80
2024/02/12 05:16:35;;;;;;;8.90;3.80;;;;;;;20.16;38.64;99566.52;102916;1295;61336;-80
2024/02/12 05:24:33;;;;;;;11.50;4.20;;;;;;;20.16;38.67;99550.13;102447;1294;61465;-80
2024/02/12 05:27:00;;;;;;;10.20;3.80;;;;;;;20.16;38.65;99546.19;102927;1294;61736;-78
2024/02/12 05:29:25;;;;;;;7.80;3.80;;;;;;;20.17;38.52;99548.08;102821;1302;61369;-80
2024/02/12 05:31:56;;;;;;;7.90;3.60;;;;;;;20.18;38.39;99545.84;103050;1294;61532;-80
2024/02/12 05:34:23;;;;;;;7.90;3.90;;;;;;;20.20;38.29;99547.27;102883;1299;62645;-80
2024/02/12 05:36:53;;;;;;;8.30;3.50;;;;;;;20.22;38.25;99542.04;102747;1296;72347;-81
2024/02/12 05:39:19;;;;;;;8.80;3.50;;;;;;;20.25;38.15;99545.69;102579;1294;74666;-80
2024/02/12 05:41:46;;;;;;;8.90;4.10;;;;;;;20.28;37.98;99553.34;102836;1298;61310;-80
2024/02/12 05:44:13;;;;;;;9.90;3.80;;;;;;;20.30;38.00;99558.57;102853;1296;61441;-79
2024/02/12 05:46:42;;;;;;;11.00;4.00;;;;;;;20.31;37.78;99550.93;102886;1294;73686;-80
2024/02/12 05:49:09;;;;;;;10.30;4.20;;;;;;;20.32;37.61;99550.31;103090;1295;73334;-80
2024/02/12 05:51:36;;;;;;;11.30;3.80;;;;;;;20.33;37.82;99547.77;103024;1293;61234;-80
2024/02/12 05:54:03;;;;;;;15.50;4.50;;;;;;;20.33;37.72;99546.52;103236;1291;61368;-79
2024/02/12 05:56:29;;;;;;;12.70;4.90;;;;;;;20.34;37.55;99553.77;103260;1291;61465;-81
2024/02/12 05:58:55;;;;;;;12.50;4.10;;;;;;;20.34;37.61;99556.05;104059;1297;61397;-78
2024/02/12 06:01:21;;;;;;;12.90;4.30;;;;;;;20.35;37.58;99560.48;104239;1291;63605;-79
2024/02/12 06:03:46;;;;;;;11.90;4.40;;;;;;;20.35;37.56;99559.69;104403;1295;61303;-80
2024/02/12 06:06:12;;;;;;;13.20;4.10;;;;;;;20.38;37.55;99563.80;104431;1292;61358;-78
2024/02/12 06:08:38;;;;;;;9.70;3.80;;;;;;;20.39;37.45;99561.12;103961;1295;61322;-77
2024/02/12 06:11:04;;;;;;;10.30;3.80;;;;;;;20.42;37.46;99558.37;103782;1289;61800;-78
2024/02/12 06:13:30;;;;;;;15.10;3.80;;;;;;;20.46;37.44;99555.86;103936;1294;61339;-79
2024/02/12 06:15:56;;;;;;;14.20;4.10;;;;;;;20.50;37.31;99557.38;104112;1294;61278;-80
2024/02/12 06:18:21;;;;;;;10.60;4.00;;;;;;;20.52;37.33;99547.14;104014;1295;61500;-80
2024/02/12 06:20:48;;;;;;;10.60;3.70;;;;;;;20.55;37.38;99548.52;104053;1294;62638;-80
2024/02/12 06:23:14;;;;;;;12.10;4.10;;;;;;;20.56;37.29;99547.84;104016;1293;61353;-78
2024/02/12 06:25:41;;;;;;;9.50;3.60;;;;;;;20.59;37.28;99546.35;103803;1297;62245;-78
2024/02/12 06:28:09;;;;;;;8.80;3.70;;;;;;;20.63;37.30;99542.10;104081;1294;61391;-79
2024/02/12 06:30:36;;;;;;;11.90;3.80;;;;;;;20.67;37.29;99534.39;104045;1295;59336;-79
2024/02/12 06:33:03;;;;;;;11.30;3.80;;;;;;;20.70;37.33;99531.81;103832;1294;61503;-78
2024/02/12 06:35:30;;;;;;;11.60;3.90;;;;;;;20.74;37.10;99532.92;103901;1290;61112;-80
2024/02/12 06:37:56;;;;;;;9.80;3.40;;;;;;;20.78;37.07;99532.92;106005;1289;72608;-79
2024/02/12 06:40:22;;;;;;;12.50;3.80;;;;;;;20.82;37.00;99530.39;104885;1292;61289;-80
2024/02/12 06:42:48;;;;;;;11.40;4.00;;;;;;;20.86;37.03;99535.00;103822;1294;61417;-83
2024/02/12 06:45:16;;;;;;;7.70;3.20;;;;;;;20.89;37.17;99536.73;103710;1289;61277;-80
2024/02/12 06:47:43;;;;;;;14.40;4.80;;;;;;;20.91;36.94;99535.47;103625;1295;72468;-79
2024/02/12 06:50:09;;;;;;;9.40;3.90;;;;;;;20.91;36.87;99533.52;103889;1294;61396;-80
2024/02/12 06:52:34;;;;;;;10.60;3.60;;;;;;;20.93;36.95;99540.69;104556;1290;61260;-81
2024/02/12 06:55:00;;;;;;;11.30;4.00;;;;;;;20.91;36.75;99537.77;104307;1289;59702;-80
2024/02/12 06:57:26;;;;;;;15.40;4.30;;;;;;;20.91;37.22;99543.17;104466;1295;61394;-82
2024/02/12 06:59:52;;;;;;;17.40;4.60;;;;;;;20.91;37.18;99541.20;104148;1290;61477;-81
2024/02/12 07:02:19;;;;;;;18.30;4.50;;;;;;;20.93;37.45;99545.48;104220;1289;61353;-79
2024/02/12 07:04:47;;;;;;;16.30;3.90;;;;;;;20.95;37.55;99547.11;104111;1293;61381;-81
2024/02/12 07:07:13;;;;;;;17.60;4.30;;;;;;;20.94;37.56;99543.45;104278;1293;61308;-81
2024/02/12 07:09:39;;;;;;;13.50;3.90;;;;;;;20.90;37.55;99538.94;103919;1289;61414;-81
2024/02/12 07:12:06;;;;;;;18.30;4.50;;;;;;;20.87;37.45;99533.15;103816;1290;62343;-80
2024/02/12 07:14:32;;;;;;;14.50;3.90;;;;;;;20.87;37.30;99535.17;103910;1291;61228;-81
2024/02/12 07:16:59;;;;;;;14.00;3.80;;;;;;;20.86;37.40;99533.56;103912;1290;61316;-80
2024/02/12 07:19:26;;;;;;;12.50;4.00;;;;;;;20.88;37.35;99529.86;103811;1292;61321;-81
2024/02/12 07:21:52;;;;;;;14.40;3.80;;;;;;;20.87;37.31;99529.77;103711;1289;61384;-81
2024/02/12 07:24:17;;;;;;;13.60;4.00;;;;;;;20.89;37.40;99526.94;103931;1293;61478;-82
2024/02/12 07:26:44;;;;;;;12.80;4.50;;;;;;;20.87;37.28;99512.92;103987;1291;62393;-80
2024/02/12 07:29:10;;;;;;;17.60;4.50;;;;;;;20.86;37.43;99509.20;103945;1294;61341;-80
2024/02/12 07:31:36;;;;;;;17.20;4.90;;;;;;;20.86;37.22;99509.61;103663;1290;61523;-80
2024/02/12 07:34:03;;;;;;;17.90;5.10;;;;;;;20.84;37.21;99509.65;104058;1291;61272;-80
2024/02/12 07:36:30;;;;;;;14.00;4.80;;;;;;;20.81;37.16;99512.06;104227;1290;61414;-81
2024/02/12 07:38:59;;;;;;;12.60;5.20;;;;;;;20.79;37.11;99507.95;104018;1293;61775;-82
2024/02/12 07:41:28;;;;;;;17.90;5.90;;;;;;;20.77;37.08;99506.51;103910;1295;61181;-81
2024/02/12 07:43:54;;;;;;;14.10;6.20;;;;;;;20.75;37.13;99498.95;104078;1291;62598;-81
2024/02/12 07:46:20;;;;;;;16.90;6.00;;;;;;;20.74;37.29;99495.48;104080;1290;73444;-82
2024/02/12 07:48:46;;;;;;;19.40;6.30;;;;;;;20.73;37.22;99494.52;103909;1289;62609;-82
2024/02/12 07:51:11;;;;;;;19.80;6.60;;;;;;;20.72;37.22;99487.47;103942;1289;61727;-81
2024/02/12 07:53:38;;;;;;;18.00;6.70;;;;;;;20.72;37.22;99488.20;104238;1290;61182;-81
2024/02/12 07:56:11;;;;;;;24.60;7.20;;;;;;;20.66;37.33;99476.90;104393;1289;73531;-81
2024/02/12 07:58:37;;;;;;;22.40;6.60;;;;;;;20.64;37.61;99476.02;104403;1291;74411;-82
2024/02/12 08:01:03;;;;;;;23.80;7.60;;;;;;;20.64;37.85;99477.61;104318;1294;61422;-81
2024/02/12 08:03:29;;;;;;;23.00;7.10;;;;;;;20.56;37.95;99476.17;104537;1290;59336;-80
2024/02/12 08:05:55;;;;;;;22.50;6.90;;;;;;;20.53;38.22;99475.19;104211;1294;61412;-82
2024/02/12 08:08:21;;;;;;;20.60;6.80;;;;;;;20.54;38.21;99473.02;104110;1290;61323;-80
2024/02/12 08:10:47;;;;;;;21.70;6.30;;;;;;;20.56;38.48;99475.24;104081;1291;59893;-79
2024/02/12 08:13:13;;;;;;;21.70;6.50;;;;;;;20.60;38.55;99474.94;103961;1292;61382;-80
2024/02/12 08:15:39;;;;;;;33.50;6.10;;;;;;;20.65;38.58;99478.63;103877;1291;61570;-79
2024/02/12 08:18:06;;;;;;;29.80;6.20;;;;;;;20.71;39.23;99475.01;103960;1289;72446;-79
2024/02/12 08:20:32;;;;;;;23.00;5.40;;;;;;;20.80;39.82;99480.49;104762;1292;74479;-80
2024/02/12 08:22:58;;;;;;;25.60;5.40;;;;;;;20.90;40.28;99481.19;103895;1291;61287;-79
2024/02/12 08:25:25;;;;;;;28.50;5.70;;;;;;;20.98;40.53;99480.17;104122;1289;60457;-79
2024/02/12 08:27:50;;;;;;;30.60;5.20;;;;;;;21.04;40.78;99474.08;103920;1289;61324;-79
2024/02/12 08:30:17;;;;;;;17.30;5.60;;;;;;;21.09;40.75;99474.45;103763;1293;61295;-78
2024/02/12 08:32:43;;;;;;;25.10;5.50;;;;;;;21.13;40.63;99469.68;104098;1289;61403;-80
2024/02/12 08:35:10;;;;;;;21.60;5.00;;;;;;;21.15;40.47;99461.60;103884;1290;61285;-82
2024/02/12 08:37:35;;;;;;;16.70;4.90;;;;;;;21.17;40.31;99458.34;103751;1292;61780;-81
2024/02/12 08:40:05;;;;;;;19.10;5.60;;;;;;;21.19;40.28;99460.48;103859;1291;61608;-80
2024/02/12 08:42:32;;;;;;;20.80;5.40;;;;;;;21.21;40.25;99454.15;103862;1292;61009;-81
2024/02/12 08:44:59;;;;;;;15.50;4.70;;;;;;;21.23;40.11;99455.77;103783;1289;61440;-81
2024/02/12 08:47:26;;;;;;;13.70;4.20;;;;;;;21.25;40.14;99459.23;103845;1289;72497;-80
2024/02/12 08:49:53;;;;;;;18.00;3.70;;;;;;;21.24;40.10;99458.20;103897;1291;75635;-80
2024/02/12 08:52:19;;;;;;;21.80;4.50;;;;;;;21.23;39.97;99454.05;103978;1291;61301;-81
2024/02/12 08:54:45;;;;;;;21.30;4.30;;;;;;;21.21;39.83;99454.61;104076;1289;61334;-82
2024/02/12 08:57:14;;;;;;;19.10;3.40;;;;;;;21.16;39.97;99448.09;104343;1294;63717;-83
2024/02/12 08:59:43;;;;;;;18.60;3.50;;;;;;;21.10;39.97;99445.58;104214;1289;75512;-82
2024/02/12 09:02:09;;;;;;;22.30;4.10;;;;;;;21.06;39.88;99444.48;103823;1294;61293;-82
2024/02/12 09:04:35;;;;;;;22.00;4.00;;;;;;;21.05;39.97;99441.52;103882;1291;61395;-81
2024/02/12 09:07:03;;;;;;;24.90;4.40;;;;;;;21.08;40.37;99433.80;103622;1289;61387;-81
2024/02/12 09:09:29;;;;;;;28.20;4.40;;;;;;;21.09;40.30;99430.10;103866;1291;75387;-82
2024/02/12 09:11:55;;;;;;;21.50;3.70;;;;;;;21.09;40.28;99419.34;104142;1290;61314;-81
2024/02/12 09:14:24;;;;;;;16.60;3.60;;;;;;;21.11;40.18;99412.63;104220;1289;61287;-80
2024/02/12 09:16:50;;;;;;;22.30;4.00;;;;;;;21.11;40.07;99409.14;104154;1291;72377;-80
2024/02/12 09:19:16;;;;;;;25.30;4.20;;;;;;;21.13;40.43;99409.52;104141;1291;61356;-79
2024/02/12 09:21:42;;;;;;;15.70;3.60;;;;;;;21.15;40.84;99402.39;104063;1290;61453;-79
2024/02/12 09:24:11;;;;;;;18.30;4.30;;;;;;;21.16;41.02;99393.48;104189;1290;61977;-79
2024/02/12 09:26:37;;;;;;;;;;;;;;;21.17;41.26;99397.15;103745;1297;72602;-81
2024/02/12 09:29:03;;;;;;;17.60;3.60;;;;;;;21.15;41.25;99397.19;103810;1291;62630;-79
2024/02/12 09:31:33;;;;;;;14.10;3.10;;;;;;;21.16;41.26;99391.73;103983;1290;61864;-79
2024/02/12 09:34:02;;;;;;;17.80;3.10;;;;;;;21.17;41.31;99381.95;103814;1291;61274;-79
2024/02/12 09:36:29;;;;;;;13.70;3.30;;;;;;;21.17;41.43;99374.08;104036;1292;72557;-80
2024/02/12 09:38:54;;;;;;;18.00;3.30;;;;;;;21.18;41.45;99372.04;104174;1291;61296;-80
2024/02/12 09:41:26;;;;;;;20.50;3.60;;;;;;;21.18;41.21;99370.23;104429;1290;61369;-80
2024/02/12 09:43:53;;;;;;;25.40;4.20;;;;;;;21.19;41.34;99365.65;104243;1291;61401;-80
2024/02/12 09:46:18;;;;;;;17.40;3.50;;;;;;;21.19;41.20;99363.29;104497;1289;72711;-81
2024/02/12 09:48:44;;;;;;;20.40;3.40;;;;;;;21.20;41.26;99358.39;104807;1293;61303;-82
2024/02/12 09:51:12;;;;;;;19.30;3.80;;;;;;;21.19;41.14;99356.69;104366;1290;61327;-80
2024/02/12 09:53:39;;;;;;;35.00;4.50;;;;;;;21.18;40.97;99350.73;104213;1289;61179;-81
2024/02/12 09:56:05;;;;;;;29.00;4.20;;;;;;;21.15;41.13;99344.92;104480;1292;61285;-80
2024/02/12 09:58:33;;;;;;;31.50;4.80;;;;;;;21.14;41.17;99340.61;104657;1289;61362;-80
2024/02/12 10:01:01;;;;;;;30.40;4.10;;;;;;;21.15;41.28;99336.91;104830;1289;60295;-82
2024/02/12 10:03:28;;;;;;;31.70;4.60;;;;;;;21.17;41.46;99336.38;104695;1291;61411;-82
2024/02/12 10:05:53;;;;;;;36.60;4.80;;;;;;;21.18;41.37;99336.40;104445;1289;60402;-81
2024/02/12 10:08:20;;;;;;;24.80;4.60;;;;;;;21.21;41.50;99339.15;103959;1290;61331;-81
2024/02/12 10:10:46;;;;;;;25.90;3.60;;;;;;;21.24;41.40;99340.54;104284;1290;61175;-81
2024/02/12 10:13:12;;;;;;;24.80;3.80;;;;;;;21.25;41.34;99336.79;104017;1290;61439;-79
2024/02/12 10:15:39;;;;;;;27.60;4.10;;;;;;;21.27;41.23;99331.11;104511;1291;61292;-81
2024/02/12 10:18:04;;;;;;;27.70;4.20;;;;;;;21.29;40.98;99327.40;104208;1290;61302;-82
2024/02/12 10:20:30;;;;;;;27.30;4.10;;;;;;;21.29;40.96;99322.91;104435;1290;61301;-83
2024/02/12 10:22:57;;;;;;;38.50;4.30;;;;;;;21.28;40.91;99324.08;104472;1294;61293;-80
2024/02/12 10:25:23;;;;;;;26.30;3.80;;;;;;;21.26;41.11;99323.81;104310;1291;61391;-81
2024/02/12 10:27:49;;;;;;;28.30;3.70;;;;;;;21.29;41.15;99316.30;104259;1290;61647;-80
2024/02/12 10:30:18;;;;;;;20.20;3.50;;;;;;;21.31;40.87;99314.13;104368;1291;61359;-79
2024/02/12 10:32:56;;;;;;;17.00;3.40;;;;;;;21.33;40.80;99310.32;104000;1293;62589;-79
2024/02/12 10:35:23;;;;;;;22.00;3.60;;;;;;;21.33;40.66;99306.79;104258;1289;61980;-79
2024/02/12 10:37:49;;;;;;;23.40;4.20;;;;;;;21.32;40.41;99289.16;104188;1296;73598;-79
2024/02/12 10:40:16;;;;;;;18.90;3.70;;;;;;;21.32;40.35;99272.31;104191;1291;61609;-79
2024/02/12 10:42:50;;;;;;;28.40;3.80;;;;;;;21.31;40.42;99277.35;104198;1292;61692;-79
2024/02/12 10:45:21;;;;;;;19.00;3.80;;;;;;;21.33;40.34;99284.52;105606;1290;60295;-80
2024/02/12 10:47:47;;;;;;;19.10;4.00;;;;;;;21.33;40.20;99282.38;104335;1290;61379;-80
2024/02/12 10:50:13;;;;;;;25.20;3.20;;;;;;;21.32;40.26;99283.96;104326;1289;60505;-80
2024/02/12 10:52:42;;;;;;;23.30;3.80;;;;;;;21.32;40.43;99283.77;104419;1290;61935;-82
2024/02/12 10:55:09;;;;;;;20.70;3.50;;;;;;;21.29;40.49;99280.51;104531;1290;61388;-81
2024/02/12 10:57:39;;;;;;;26.50;3.80;;;;;;;21.29;40.54;99280.55;104050;1291;73605;-81
2024/02/12 11:00:05;;;;;;;;;;;;;;;21.29;40.52;99276.13;104251;1289;74606;-81
2024/02/12 11:02:43;;;;;;;15.70;3.40;;;;;;;21.27;40.55;99272.63;105405;1288;61191;-80
2024/02/12 11:05:12;;;;;;;15.20;3.40;;;;;;;21.26;40.45;99266.23;104291;1290;61239;-81
2024/02/12 11:07:39;;;;;;;22.60;3.50;;;;;;;21.20;40.49;99260.54;104114;1288;73309;-81
2024/02/12 11:10:06;;;;;;;22.60;3.50;;;;;;;21.17;40.50;99253.83;104015;1289;74515;-81
2024/02/12 11:12:33;;;;;;;16.10;3.50;;;;;;;21.13;40.25;99251.96;104126;1288;62825;-81
2024/02/12 11:15:10;;;;;;;20.00;3.20;;;;;;;20.98;40.46;99249.97;104001;1291;61361;-81
2024/02/12 11:17:36;;;;;;;19.60;3.60;;;;;;;20.88;40.57;99244.41;104206;1293;73563;-82
2024/02/12 11:20:05;;;;;;;23.60;3.60;;;;;;;20.87;40.59;99232.52;104008;1289;61298;-81
2024/02/12 11:22:32;;;;;;;14.10;3.40;;;;;;;20.91;40.63;99228.79;104461;1291;63610;-81
2024/02/12 11:24:59;;;;;;;14.40;3.30;;;;;;;20.95;40.61;99222.68;104551;1289;61267;-82
2024/02/12 11:27:40;;;;;;;16.60;3.20;;;;;;;20.99;40.61;99221.09;106099;1291;72571;-82
2024/02/12 11:30:09;;;;;;;22.10;4.10;;;;;;;21.03;40.69;99216.77;104800;1289;74150;-82
2024/02/12 11:32:35;;;;;;;;;;;;;;;21.07;40.64;99216.74;104810;1290;61244;-81
2024/02/12 11:35:13;;;;;;;12.80;3.00;;;;;;;21.06;40.75;99217.33;106170;1289;59595;-81
2024/02/12 11:37:41;;;;;;;19.10;3.40;;;;;;;21.10;40.71;99226.77;105511;1290;74360;-80